sensor_id;sensor_type;location;lat;lon;timestamp;temperature;humidity
43810;DHT22;29440;48.208;11.162;2023-08-31T00:01:38;13.70;99.90
43810;DHT22;29440;48.208;11.162;2023-08-31T00:04:04;13.70;99.90
43810;DHT22;29440;48.208;11.162;2023-08-31T00:06:31;13.70;99.90
43810;DHT22;29440;48.208;11.162;2023-08-31T00:08:57;13.70;99.90
43810;DHT22;29440;48.208;11.162;2023-08-31T00:11:23;13.70;99.90
43810;DHT22;29440;48.208;11.162;2023-08-31T00:13:49;13.60;99.90
43810;DHT22;29440;48.208;11.162;2023-08-31T00:16:15;13.60;99.90
43810;DHT22;29440;48.208;11.162;2023-08-31T00:18:41;13.60;99.90
43810;DHT22;29440;48.208;11.162;2023-08-31T00:21:25;13.60;99.90
43810;DHT22;29440;48.208;11.162;2023-08-31T00:23:50;13.60;99.90
43810;DHT22;29440;48.208;11.162;2023-08-31T00:26:16;13.50;99.90
43810;DHT22;29440;48.208;11.162;2023-08-31T00:28:42;13.50;99.90
43810;DHT22;29440;48.208;11.162;2023-08-31T00:31:09;13.50;99.90
43810;DHT22;29440;48.208;11.162;2023-08-31T00:33:37;13.50;99.90
43810;DHT22;29440;48.208;11.162;2023-08-31T00:36:03;13.40;99.90
43810;DHT22;29440;48.208;11.162;2023-08-31T00:38:29;13.40;99.90
43810;DHT22;29440;48.208;11.162;2023-08-31T00:40:55;13.40;99.90
43810;DHT22;29440;48.208;11.162;2023-08-31T00:43:21;13.40;99.90
43810;DHT22;29440;48.208;11.162;2023-08-31T00:45:49;13.40;99.90
43810;DHT22;29440;48.208;11.162;2023-08-31T00:48:16;13.30;99.90
43810;DHT22;29440;48.208;11.162;2023-08-31T00:50:48;13.40;99.90
43810;DHT22;29440;48.208;11.162;2023-08-31T00:53:15;13.30;99.90
43810;DHT22;29440;48.208;11.162;2023-08-31T00:55:42;13.30;99.90
43810;DHT22;29440;48.208;11.162;2023-08-31T00:58:08;13.30;99.90
43810;DHT22;29440;48.208;11.162;2023-08-31T01:00:49;13.30;99.90
43810;DHT22;29440;48.208;11.162;2023-08-31T01:06:17;13.30;99.90
43810;DHT22;29440;48.208;11.162;2023-08-31T01:08:53;13.30;99.90
43810;DHT22;29440;48.208;11.162;2023-08-31T01:11:34;13.40;99.90
43810;DHT22;29440;48.208;11.162;2023-08-31T01:14:16;13.40;99.90
43810;DHT22;29440;48.208;11.162;2023-08-31T01:16:44;13.40;99.90
43810;DHT22;29440;48.208;11.162;2023-08-31T01:19:44;13.40;99.90
43810;DHT22;29440;48.208;11.162;2023-08-31T01:22:18;13.40;99.90
43810;DHT22;29440;48.208;11.162;2023-08-31T01:24:47;13.60;99.90
43810;DHT22;29440;48.208;11.162;2023-08-31T01:27:13;13.60;99.90
43810;DHT22;29440;48.208;11.162;2023-08-31T01:29:39;13.60;99.90
43810;DHT22;29440;48.208;11.162;2023-08-31T01:32:07;13.70;99.90
43810;DHT22;29440;48.208;11.162;2023-08-31T01:34:33;13.70;99.90
43810;DHT22;29440;48.208;11.162;2023-08-31T01:37:05;13.70;99.90
43810;DHT22;29440;48.208;11.162;2023-08-31T01:39:37;13.80;99.90
43810;DHT22;29440;48.208;11.162;2023-08-31T01:42:07;13.80;99.90
43810;DHT22;29440;48.208;11.162;2023-08-31T01:44:36;13.90;99.90
43810;DHT22;29440;48.208;11.162;2023-08-31T01:47:04;13.90;99.90
43810;DHT22;29440;48.208;11.162;2023-08-31T01:49:40;13.90;99.90
43810;DHT22;29440;48.208;11.162;2023-08-31T01:52:08;13.90;99.90
43810;DHT22;29440;48.208;11.162;2023-08-31T01:54:34;14.00;99.90
43810;DHT22;29440;48.208;11.162;2023-08-31T01:57:00;14.10;99.90
43810;DHT22;29440;48.208;11.162;2023-08-31T01:59:28;14.00;99.90
43810;DHT22;29440;48.208;11.162;2023-08-31T02:01:54;14.10;99.90
43810;DHT22;29440;48.208;11.162;2023-08-31T02:04:20;14.10;99.90
43810;DHT22;29440;48.208;11.162;2023-08-31T02:06:45;14.00;99.90
43810;DHT22;29440;48.208;11.162;2023-08-31T02:09:13;14.10;99.90
43810;DHT22;29440;48.208;11.162;2023-08-31T02:11:39;14.10;99.90
43810;DHT22;29440;48.208;11.162;2023-08-31T02:14:05;14.00;99.90
43810;DHT22;29440;48.208;11.162;2023-08-31T02:16:31;14.10;99.90
43810;DHT22;29440;48.208;11.162;2023-08-31T02:18:57;14.00;99.90
43810;DHT22;29440;48.208;11.162;2023-08-31T02:21:23;14.00;99.90
43810;DHT22;29440;48.208;11.162;2023-08-31T02:23:48;14.00;99.90
43810;DHT22;29440;48.208;11.162;2023-08-31T02:26:14;14.00;99.90
43810;DHT22;29440;48.208;11.162;2023-08-31T02:28:40;14.00;99.90
43810;DHT22;29440;48.208;11.162;2023-08-31T02:31:05;14.00;99.90
43810;DHT22;29440;48.208;11.162;2023-08-31T02:33:31;13.90;99.90
43810;DHT22;29440;48.208;11.162;2023-08-31T02:35:56;14.00;99.90
43810;DHT22;29440;48.208;11.162;2023-08-31T02:38:22;14.00;99.90
43810;DHT22;29440;48.208;11.162;2023-08-31T02:40:49;13.90;99.90
43810;DHT22;29440;48.208;11.162;2023-08-31T02:43:15;13.90;99.90
43810;DHT22;29440;48.208;11.162;2023-08-31T02:45:40;13.90;99.90
43810;DHT22;29440;48.208;11.162;2023-08-31T02:48:10;14.00;99.90
43810;DHT22;29440;48.208;11.162;2023-08-31T02:50:36;13.90;99.90
43810;DHT22;29440;48.208;11.162;2023-08-31T02:53:01;13.90;99.90
43810;DHT22;29440;48.208;11.162;2023-08-31T02:55:27;13.80;99.90
43810;DHT22;29440;48.208;11.162;2023-08-31T02:57:53;13.90;99.90
43810;DHT22;29440;48.208;11.162;2023-08-31T03:00:19;13.80;99.90
43810;DHT22;29440;48.208;11.162;2023-08-31T03:02:50;13.80;99.90
43810;DHT22;29440;48.208;11.162;2023-08-31T03:05:18;13.80;99.90
43810;DHT22;29440;48.208;11.162;2023-08-31T03:07:43;13.80;99.90
43810;DHT22;29440;48.208;11.162;2023-08-31T03:10:09;13.80;99.90
43810;DHT22;29440;48.208;11.162;2023-08-31T03:12:35;13.80;99.90
43810;DHT22;29440;48.208;11.162;2023-08-31T03:15:01;13.80;99.90
43810;DHT22;29440;48.208;11.162;2023-08-31T03:17:27;13.80;99.90
43810;DHT22;29440;48.208;11.162;2023-08-31T03:19:52;13.80;99.90
43810;DHT22;29440;48.208;11.162;2023-08-31T03:22:18;13.80;99.90
43810;DHT22;29440;48.208;11.162;2023-08-31T03:24:47;13.80;99.90
43810;DHT22;29440;48.208;11.162;2023-08-31T03:27:12;13.70;99.90
43810;DHT22;29440;48.208;11.162;2023-08-31T03:29:38;13.70;99.90
43810;DHT22;29440;48.208;11.162;2023-08-31T03:32:05;13.60;99.90
43810;DHT22;29440;48.208;11.162;2023-08-31T03:34:31;13.70;99.90
43810;DHT22;29440;48.208;11.162;2023-08-31T03:36:58;13.60;99.90
43810;DHT22;29440;48.208;11.162;2023-08-31T03:39:27;13.60;99.90
43810;DHT22;29440;48.208;11.162;2023-08-31T03:41:59;13.50;99.90
43810;DHT22;29440;48.208;11.162;2023-08-31T03:44:24;13.60;99.90
43810;DHT22;29440;48.208;11.162;2023-08-31T03:46:50;13.50;99.90
43810;DHT22;29440;48.208;11.162;2023-08-31T03:49:16;13.50;99.90
43810;DHT22;29440;48.208;11.162;2023-08-31T03:51:41;13.60;99.90
43810;DHT22;29440;48.208;11.162;2023-08-31T03:54:08;13.40;99.90
43810;DHT22;29440;48.208;11.162;2023-08-31T03:56:34;13.50;99.90
43810;DHT22;29440;48.208;11.162;2023-08-31T03:59:02;13.40;99.90
43810;DHT22;29440;48.208;11.162;2023-08-31T04:01:29;13.40;99.90
43810;DHT22;29440;48.208;11.162;2023-08-31T04:03:54;13.40;99.90
43810;DHT22;29440;48.208;11.162;2023-08-31T04:06:20;13.40;99.90
43810;DHT22;29440;48.208;11.162;2023-08-31T04:08:49;13.40;99.90
43810;DHT22;29440;48.208;11.162;2023-08-31T04:11:15;13.50;99.90
43810;DHT22;29440;48.208;11.162;2023-08-31T04:13:40;13.40;99.90
43810;DHT22;29440;48.208;11.162;2023-08-31T04:16:06;13.30;99.90
43810;DHT22;29440;48.208;11.162;2023-08-31T04:18:31;13.30;99.90
43810;DHT22;29440;48.208;11.162;2023-08-31T04:21:00;13.40;99.90
43810;DHT22;29440;48.208;11.162;2023-08-31T04:23:31;13.40;99.90
43810;DHT22;29440;48.208;11.162;2023-08-31T04:25:58;13.30;99.90
43810;DHT22;29440;48.208;11.162;2023-08-31T04:28:25;13.40;99.90
43810;DHT22;29440;48.208;11.162;2023-08-31T04:30:51;13.30;99.90
43810;DHT22;29440;48.208;11.162;2023-08-31T04:33:20;13.40;99.90
43810;DHT22;29440;48.208;11.162;2023-08-31T04:35:49;13.30;99.90
43810;DHT22;29440;48.208;11.162;2023-08-31T04:38:17;13.20;99.90
43810;DHT22;29440;48.208;11.162;2023-08-31T04:40:44;13.20;99.90
43810;DHT22;29440;48.208;11.162;2023-08-31T04:43:10;13.30;99.90
43810;DHT22;29440;48.208;11.162;2023-08-31T04:45:36;13.20;99.90
43810;DHT22;29440;48.208;11.162;2023-08-31T04:48:01;13.20;99.90
43810;DHT22;29440;48.208;11.162;2023-08-31T04:50:31;13.10;99.90
43810;DHT22;29440;48.208;11.162;2023-08-31T04:53:00;13.20;99.90
43810;DHT22;29440;48.208;11.162;2023-08-31T04:55:25;13.20;99.90
43810;DHT22;29440;48.208;11.162;2023-08-31T04:57:51;13.20;99.90
43810;DHT22;29440;48.208;11.162;2023-08-31T05:00:21;13.10;99.90
43810;DHT22;29440;48.208;11.162;2023-08-31T05:02:47;13.10;99.90
43810;DHT22;29440;48.208;11.162;2023-08-31T05:05:13;13.10;99.90
43810;DHT22;29440;48.208;11.162;2023-08-31T05:07:39;13.10;99.90
43810;DHT22;29440;48.208;11.162;2023-08-31T05:10:06;13.10;99.90
43810;DHT22;29440;48.208;11.162;2023-08-31T05:12:35;13.10;99.90
43810;DHT22;29440;48.208;11.162;2023-08-31T05:15:05;13.10;99.90
43810;DHT22;29440;48.208;11.162;2023-08-31T05:17:31;13.10;99.90
43810;DHT22;29440;48.208;11.162;2023-08-31T05:19:57;13.20;99.90
43810;DHT22;29440;48.208;11.162;2023-08-31T05:22:23;13.20;99.90
43810;DHT22;29440;48.208;11.162;2023-08-31T05:24:49;13.30;99.90
43810;DHT22;29440;48.208;11.162;2023-08-31T05:27:18;13.40;99.90
43810;DHT22;29440;48.208;11.162;2023-08-31T05:29:44;13.40;99.90
43810;DHT22;29440;48.208;11.162;2023-08-31T05:32:09;13.40;99.90
43810;DHT22;29440;48.208;11.162;2023-08-31T05:34:35;13.40;99.90
43810;DHT22;29440;48.208;11.162;2023-08-31T05:37:03;13.50;99.90
43810;DHT22;29440;48.208;11.162;2023-08-31T05:39:32;13.50;99.90
43810;DHT22;29440;48.208;11.162;2023-08-31T05:41:58;13.60;99.90
43810;DHT22;29440;48.208;11.162;2023-08-31T05:44:23;13.70;99.90
43810;DHT22;29440;48.208;11.162;2023-08-31T05:46:49;13.80;99.90
43810;DHT22;29440;48.208;11.162;2023-08-31T05:49:14;13.90;99.90
43810;DHT22;29440;48.208;11.162;2023-08-31T05:51:43;13.90;99.90
43810;DHT22;29440;48.208;11.162;2023-08-31T05:54:09;13.90;99.90
43810;DHT22;29440;48.208;11.162;2023-08-31T05:56:39;13.90;99.90
43810;DHT22;29440;48.208;11.162;2023-08-31T05:59:05;14.00;99.90
43810;DHT22;29440;48.208;11.162;2023-08-31T06:01:32;14.00;99.90
43810;DHT22;29440;48.208;11.162;2023-08-31T06:04:00;14.00;99.90
43810;DHT22;29440;48.208;11.162;2023-08-31T06:06:26;13.90;99.90
43810;DHT22;29440;48.208;11.162;2023-08-31T06:08:51;14.20;99.90
43810;DHT22;29440;48.208;11.162;2023-08-31T06:11:19;14.50;99.90
43810;DHT22;29440;48.208;11.162;2023-08-31T06:13:44;14.60;99.90
43810;DHT22;29440;48.208;11.162;2023-08-31T06:16:10;14.90;99.90
43810;DHT22;29440;48.208;11.162;2023-08-31T06:18:38;15.50;99.90
43810;DHT22;29440;48.208;11.162;2023-08-31T06:21:04;16.00;99.90
43810;DHT22;29440;48.208;11.162;2023-08-31T06:23:30;16.50;99.90
43810;DHT22;29440;48.208;11.162;2023-08-31T06:25:56;16.90;99.90
43810;DHT22;29440;48.208;11.162;2023-08-31T06:28:21;17.00;99.90
43810;DHT22;29440;48.208;11.162;2023-08-31T06:30:47;17.00;99.90
43810;DHT22;29440;48.208;11.162;2023-08-31T06:33:16;16.90;99.90
43810;DHT22;29440;48.208;11.162;2023-08-31T06:35:46;16.70;99.90
43810;DHT22;29440;48.208;11.162;2023-08-31T06:38:13;16.40;99.90
43810;DHT22;29440;48.208;11.162;2023-08-31T06:40:42;16.40;99.90
43810;DHT22;29440;48.208;11.162;2023-08-31T06:43:07;16.20;99.90
43810;DHT22;29440;48.208;11.162;2023-08-31T06:45:33;16.20;99.90
43810;DHT22;29440;48.208;11.162;2023-08-31T06:47:59;16.40;99.90
43810;DHT22;29440;48.208;11.162;2023-08-31T06:50:25;16.50;99.90
43810;DHT22;29440;48.208;11.162;2023-08-31T06:52:50;16.50;99.90
43810;DHT22;29440;48.208;11.162;2023-08-31T06:55:16;16.50;99.90
43810;DHT22;29440;48.208;11.162;2023-08-31T06:57:42;16.50;99.90
43810;DHT22;29440;48.208;11.162;2023-08-31T07:00:08;16.60;99.90
43810;DHT22;29440;48.208;11.162;2023-08-31T07:02:36;16.60;99.90
43810;DHT22;29440;48.208;11.162;2023-08-31T07:05:02;16.50;99.90
43810;DHT22;29440;48.208;11.162;2023-08-31T07:07:29;16.40;99.90
43810;DHT22;29440;48.208;11.162;2023-08-31T07:09:54;16.30;99.90
43810;DHT22;29440;48.208;11.162;2023-08-31T07:12:21;16.20;99.90
43810;DHT22;29440;48.208;11.162;2023-08-31T07:14:46;16.20;99.90
43810;DHT22;29440;48.208;11.162;2023-08-31T07:17:12;16.10;99.90
43810;DHT22;29440;48.208;11.162;2023-08-31T07:19:38;16.20;99.90
43810;DHT22;29440;48.208;11.162;2023-08-31T07:22:04;16.10;99.90
43810;DHT22;29440;48.208;11.162;2023-08-31T07:24:31;16.20;99.90
43810;DHT22;29440;48.208;11.162;2023-08-31T07:26:57;16.10;99.90
43810;DHT22;29440;48.208;11.162;2023-08-31T07:29:23;16.00;99.90
43810;DHT22;29440;48.208;11.162;2023-08-31T07:31:50;16.10;99.90
43810;DHT22;29440;48.208;11.162;2023-08-31T07:34:16;16.30;99.90
43810;DHT22;29440;48.208;11.162;2023-08-31T07:36:41;17.10;99.90
43810;DHT22;29440;48.208;11.162;2023-08-31T07:39:07;18.00;99.90
43810;DHT22;29440;48.208;11.162;2023-08-31T07:41:33;19.10;99.90
43810;DHT22;29440;48.208;11.162;2023-08-31T07:43:59;20.00;99.90
43810;DHT22;29440;48.208;11.162;2023-08-31T07:46:24;20.60;99.90
43810;DHT22;29440;48.208;11.162;2023-08-31T07:48:50;20.70;99.90
43810;DHT22;29440;48.208;11.162;2023-08-31T07:51:16;20.60;99.90
43810;DHT22;29440;48.208;11.162;2023-08-31T07:53:42;20.30;99.90
43810;DHT22;29440;48.208;11.162;2023-08-31T07:56:07;20.20;99.90
43810;DHT22;29440;48.208;11.162;2023-08-31T07:58:33;19.80;99.90
43810;DHT22;29440;48.208;11.162;2023-08-31T08:00:59;19.70;99.90
43810;DHT22;29440;48.208;11.162;2023-08-31T08:03:25;19.60;99.90
43810;DHT22;29440;48.208;11.162;2023-08-31T08:05:51;19.30;99.90
43810;DHT22;29440;48.208;11.162;2023-08-31T08:08:16;19.20;99.90
43810;DHT22;29440;48.208;11.162;2023-08-31T08:10:42;19.10;99.90
43810;DHT22;29440;48.208;11.162;2023-08-31T08:13:09;19.00;99.90
43810;DHT22;29440;48.208;11.162;2023-08-31T08:15:34;18.70;99.90
43810;DHT22;29440;48.208;11.162;2023-08-31T08:18:00;18.40;99.90
43810;DHT22;29440;48.208;11.162;2023-08-31T08:20:27;18.30;99.90
43810;DHT22;29440;48.208;11.162;2023-08-31T08:22:53;18.10;99.90
43810;DHT22;29440;48.208;11.162;2023-08-31T08:25:20;18.10;99.90
43810;DHT22;29440;48.208;11.162;2023-08-31T08:27:46;18.00;99.90
43810;DHT22;29440;48.208;11.162;2023-08-31T08:30:11;18.00;99.90
43810;DHT22;29440;48.208;11.162;2023-08-31T08:32:37;17.90;99.90
43810;DHT22;29440;48.208;11.162;2023-08-31T08:35:03;17.70;99.90
43810;DHT22;29440;48.208;11.162;2023-08-31T08:37:29;17.50;99.90
43810;DHT22;29440;48.208;11.162;2023-08-31T08:39:55;17.50;99.90
43810;DHT22;29440;48.208;11.162;2023-08-31T08:42:22;17.50;99.90
43810;DHT22;29440;48.208;11.162;2023-08-31T08:44:51;17.40;99.90
43810;DHT22;29440;48.208;11.162;2023-08-31T08:47:17;17.40;99.90
43810;DHT22;29440;48.208;11.162;2023-08-31T08:49:43;17.40;99.90
43810;DHT22;29440;48.208;11.162;2023-08-31T08:52:10;17.30;99.90
43810;DHT22;29440;48.208;11.162;2023-08-31T08:54:37;17.30;99.90
43810;DHT22;29440;48.208;11.162;2023-08-31T08:57:03;17.20;99.90
43810;DHT22;29440;48.208;11.162;2023-08-31T08:59:30;17.20;99.90
43810;DHT22;29440;48.208;11.162;2023-08-31T09:01:56;17.20;99.90
43810;DHT22;29440;48.208;11.162;2023-08-31T09:04:22;17.20;99.90
43810;DHT22;29440;48.208;11.162;2023-08-31T09:06:50;17.20;99.90
43810;DHT22;29440;48.208;11.162;2023-08-31T09:09:16;17.20;99.90
43810;DHT22;29440;48.208;11.162;2023-08-31T09:11:42;17.20;99.90
43810;DHT22;29440;48.208;11.162;2023-08-31T09:14:18;17.20;99.90
43810;DHT22;29440;48.208;11.162;2023-08-31T09:16:51;17.20;99.90
43810;DHT22;29440;48.208;11.162;2023-08-31T09:19:21;17.20;99.90
43810;DHT22;29440;48.208;11.162;2023-08-31T09:21:52;17.20;99.90
43810;DHT22;29440;48.208;11.162;2023-08-31T09:24:18;17.30;99.90
43810;DHT22;29440;48.208;11.162;2023-08-31T09:26:45;17.40;99.90
43810;DHT22;29440;48.208;11.162;2023-08-31T09:29:14;17.30;99.90
43810;DHT22;29440;48.208;11.162;2023-08-31T09:31:43;17.40;99.90
43810;DHT22;29440;48.208;11.162;2023-08-31T09:34:10;17.30;99.90
43810;DHT22;29440;48.208;11.162;2023-08-31T09:36:37;17.30;99.90
43810;DHT22;29440;48.208;11.162;2023-08-31T09:39:04;17.30;99.90
43810;DHT22;29440;48.208;11.162;2023-08-31T09:41:30;17.20;99.90
43810;DHT22;29440;48.208;11.162;2023-08-31T09:43:56;17.20;99.90
43810;DHT22;29440;48.208;11.162;2023-08-31T09:46:22;17.10;99.90
43810;DHT22;29440;48.208;11.162;2023-08-31T09:48:48;17.00;99.90
43810;DHT22;29440;48.208;11.162;2023-08-31T09:51:15;17.00;99.90
43810;DHT22;29440;48.208;11.162;2023-08-31T09:53:48;17.00;99.90
43810;DHT22;29440;48.208;11.162;2023-08-31T09:56:18;16.90;99.90
43810;DHT22;29440;48.208;11.162;2023-08-31T09:58:46;17.00;99.90
43810;DHT22;29440;48.208;11.162;2023-08-31T10:01:12;16.90;99.90
43810;DHT22;29440;48.208;11.162;2023-08-31T10:03:39;16.90;99.90
43810;DHT22;29440;48.208;11.162;2023-08-31T10:06:05;16.90;99.90
43810;DHT22;29440;48.208;11.162;2023-08-31T10:08:33;16.70;99.90
43810;DHT22;29440;48.208;11.162;2023-08-31T10:11:01;16.60;99.90
43810;DHT22;29440;48.208;11.162;2023-08-31T10:13:31;16.60;99.90
43810;DHT22;29440;48.208;11.162;2023-08-31T10:16:00;16.50;99.90
43810;DHT22;29440;48.208;11.162;2023-08-31T10:18:29;16.60;99.90
43810;DHT22;29440;48.208;11.162;2023-08-31T10:20:56;16.50;99.90
43810;DHT22;29440;48.208;11.162;2023-08-31T10:23:22;16.30;99.90
43810;DHT22;29440;48.208;11.162;2023-08-31T10:28:20;16.30;99.90
43810;DHT22;29440;48.208;11.162;2023-08-31T10:31:05;16.30;99.90
43810;DHT22;29440;48.208;11.162;2023-08-31T10:36:16;16.60;99.90
43810;DHT22;29440;48.208;11.162;2023-08-31T10:38:45;16.80;99.90
43810;DHT22;29440;48.208;11.162;2023-08-31T10:43:53;17.40;99.90
43810;DHT22;29440;48.208;11.162;2023-08-31T10:46:29;17.80;99.90
43810;DHT22;29440;48.208;11.162;2023-08-31T10:51:31;18.10;99.90
43810;DHT22;29440;48.208;11.162;2023-08-31T10:54:07;18.20;99.90
43810;DHT22;29440;48.208;11.162;2023-08-31T10:59:20;18.30;99.90
43810;DHT22;29440;48.208;11.162;2023-08-31T11:02:01;18.40;99.90
43810;DHT22;29440;48.208;11.162;2023-08-31T11:04:29;18.50;99.90
43810;DHT22;29440;48.208;11.162;2023-08-31T11:07:15;18.50;99.90
43810;DHT22;29440;48.208;11.162;2023-08-31T11:09:41;18.40;99.90
43810;DHT22;29440;48.208;11.162;2023-08-31T11:12:07;18.50;99.90
43810;DHT22;29440;48.208;11.162;2023-08-31T11:14:33;18.40;99.90
43810;DHT22;29440;48.208;11.162;2023-08-31T11:16:59;18.40;99.90
43810;DHT22;29440;48.208;11.162;2023-08-31T11:19:26;18.20;99.90
43810;DHT22;29440;48.208;11.162;2023-08-31T11:21:51;18.20;99.90
43810;DHT22;29440;48.208;11.162;2023-08-31T11:24:18;17.90;99.90
43810;DHT22;29440;48.208;11.162;2023-08-31T11:26:46;17.80;99.90
43810;DHT22;29440;48.208;11.162;2023-08-31T11:29:13;17.60;99.90
43810;DHT22;29440;48.208;11.162;2023-08-31T11:31:39;17.50;99.90
43810;DHT22;29440;48.208;11.162;2023-08-31T11:34:05;17.40;99.90
43810;DHT22;29440;48.208;11.162;2023-08-31T11:36:32;17.50;99.90
43810;DHT22;29440;48.208;11.162;2023-08-31T11:38:58;17.50;99.90
43810;DHT22;29440;48.208;11.162;2023-08-31T11:41:24;17.60;99.90
43810;DHT22;29440;48.208;11.162;2023-08-31T11:43:50;17.80;99.90
43810;DHT22;29440;48.208;11.162;2023-08-31T11:46:17;17.90;99.90
43810;DHT22;29440;48.208;11.162;2023-08-31T11:48:44;18.20;99.90
43810;DHT22;29440;48.208;11.162;2023-08-31T11:51:11;18.50;99.90
43810;DHT22;29440;48.208;11.162;2023-08-31T11:53:37;18.70;99.90
43810;DHT22;29440;48.208;11.162;2023-08-31T11:56:03;18.90;99.90
43810;DHT22;29440;48.208;11.162;2023-08-31T11:58:29;19.00;99.90
43810;DHT22;29440;48.208;11.162;2023-08-31T12:01:00;19.00;99.90
43810;DHT22;29440;48.208;11.162;2023-08-31T12:03:26;18.90;99.90
43810;DHT22;29440;48.208;11.162;2023-08-31T12:05:52;18.90;99.90
43810;DHT22;29440;48.208;11.162;2023-08-31T12:08:27;19.00;99.90
43810;DHT22;29440;48.208;11.162;2023-08-31T12:10:53;18.80;99.90
43810;DHT22;29440;48.208;11.162;2023-08-31T12:13:19;18.80;99.90
43810;DHT22;29440;48.208;11.162;2023-08-31T12:15:44;18.90;99.90
43810;DHT22;29440;48.208;11.162;2023-08-31T12:18:14;18.90;99.90
43810;DHT22;29440;48.208;11.162;2023-08-31T12:20:47;18.90;99.90
43810;DHT22;29440;48.208;11.162;2023-08-31T12:23:13;19.00;99.90
43810;DHT22;29440;48.208;11.162;2023-08-31T12:25:48;19.10;99.90
43810;DHT22;29440;48.208;11.162;2023-08-31T12:28:13;19.30;99.90
43810;DHT22;29440;48.208;11.162;2023-08-31T12:30:42;19.40;99.90
43810;DHT22;29440;48.208;11.162;2023-08-31T12:33:11;19.50;99.90
43810;DHT22;29440;48.208;11.162;2023-08-31T12:35:37;19.50;99.90
43810;DHT22;29440;48.208;11.162;2023-08-31T12:38:04;19.50;99.90
43810;DHT22;29440;48.208;11.162;2023-08-31T12:40:29;19.50;99.90
43810;DHT22;29440;48.208;11.162;2023-08-31T12:42:55;19.40;99.90
43810;DHT22;29440;48.208;11.162;2023-08-31T12:45:21;19.40;99.90
43810;DHT22;29440;48.208;11.162;2023-08-31T12:47:46;19.30;99.90
43810;DHT22;29440;48.208;11.162;2023-08-31T12:50:13;19.20;99.90
43810;DHT22;29440;48.208;11.162;2023-08-31T12:52:39;18.90;99.90
43810;DHT22;29440;48.208;11.162;2023-08-31T12:55:10;19.00;99.90
43810;DHT22;29440;48.208;11.162;2023-08-31T12:57:35;18.80;99.90
43810;DHT22;29440;48.208;11.162;2023-08-31T13:00:02;18.80;99.90
43810;DHT22;29440;48.208;11.162;2023-08-31T13:02:30;18.70;99.90
43810;DHT22;29440;48.208;11.162;2023-08-31T13:04:56;18.70;99.90
43810;DHT22;29440;48.208;11.162;2023-08-31T13:07:22;18.50;99.90
43810;DHT22;29440;48.208;11.162;2023-08-31T13:09:50;18.50;99.90
43810;DHT22;29440;48.208;11.162;2023-08-31T13:12:16;18.60;99.90
43810;DHT22;29440;48.208;11.162;2023-08-31T13:14:44;18.70;99.90
43810;DHT22;29440;48.208;11.162;2023-08-31T13:17:09;18.80;99.90
43810;DHT22;29440;48.208;11.162;2023-08-31T13:19:35;18.90;99.90
43810;DHT22;29440;48.208;11.162;2023-08-31T13:22:01;18.90;99.90
43810;DHT22;29440;48.208;11.162;2023-08-31T13:24:28;18.90;99.90
43810;DHT22;29440;48.208;11.162;2023-08-31T13:26:53;19.10;99.90
43810;DHT22;29440;48.208;11.162;2023-08-31T13:29:23;19.10;99.90
43810;DHT22;29440;48.208;11.162;2023-08-31T13:31:49;19.10;99.90
43810;DHT22;29440;48.208;11.162;2023-08-31T13:34:15;19.00;99.90
43810;DHT22;29440;48.208;11.162;2023-08-31T13:36:41;18.90;99.90
43810;DHT22;29440;48.208;11.162;2023-08-31T13:39:07;18.90;99.90
43810;DHT22;29440;48.208;11.162;2023-08-31T13:41:33;19.00;99.90
43810;DHT22;29440;48.208;11.162;2023-08-31T13:43:59;18.90;99.90
43810;DHT22;29440;48.208;11.162;2023-08-31T13:46:24;19.00;99.90
43810;DHT22;29440;48.208;11.162;2023-08-31T13:48:53;18.90;99.90
43810;DHT22;29440;48.208;11.162;2023-08-31T13:51:18;19.00;99.90
43810;DHT22;29440;48.208;11.162;2023-08-31T13:53:45;18.90;99.90
43810;DHT22;29440;48.208;11.162;2023-08-31T13:56:11;18.90;99.90
43810;DHT22;29440;48.208;11.162;2023-08-31T13:58:37;18.90;99.90
43810;DHT22;29440;48.208;11.162;2023-08-31T14:01:02;18.90;99.90
43810;DHT22;29440;48.208;11.162;2023-08-31T14:03:29;19.00;99.90
43810;DHT22;29440;48.208;11.162;2023-08-31T14:05:54;18.90;99.90
43810;DHT22;29440;48.208;11.162;2023-08-31T14:08:20;19.00;99.90
43810;DHT22;29440;48.208;11.162;2023-08-31T14:10:46;19.00;99.90
43810;DHT22;29440;48.208;11.162;2023-08-31T14:13:11;18.90;99.90
43810;DHT22;29440;48.208;11.162;2023-08-31T14:15:37;19.00;99.90
43810;DHT22;29440;48.208;11.162;2023-08-31T14:18:09;19.00;99.90
43810;DHT22;29440;48.208;11.162;2023-08-31T14:20:35;19.10;99.90
43810;DHT22;29440;48.208;11.162;2023-08-31T14:23:00;19.20;99.90
43810;DHT22;29440;48.208;11.162;2023-08-31T14:25:27;19.20;99.90
43810;DHT22;29440;48.208;11.162;2023-08-31T14:27:53;19.20;99.90
43810;DHT22;29440;48.208;11.162;2023-08-31T14:30:18;19.20;99.90
43810;DHT22;29440;48.208;11.162;2023-08-31T14:32:44;19.30;99.90
43810;DHT22;29440;48.208;11.162;2023-08-31T14:35:11;19.30;99.90
43810;DHT22;29440;48.208;11.162;2023-08-31T14:37:37;19.20;99.90
43810;DHT22;29440;48.208;11.162;2023-08-31T14:40:03;19.10;99.90
43810;DHT22;29440;48.208;11.162;2023-08-31T14:42:32;19.20;99.90
43810;DHT22;29440;48.208;11.162;2023-08-31T14:44:58;19.00;99.90
43810;DHT22;29440;48.208;11.162;2023-08-31T14:47:25;19.10;99.90
43810;DHT22;29440;48.208;11.162;2023-08-31T14:49:52;19.00;99.90
43810;DHT22;29440;48.208;11.162;2023-08-31T14:52:17;19.10;99.90
43810;DHT22;29440;48.208;11.162;2023-08-31T14:54:43;19.10;99.90
43810;DHT22;29440;48.208;11.162;2023-08-31T14:57:12;19.10;99.90
43810;DHT22;29440;48.208;11.162;2023-08-31T14:59:37;19.10;99.90
43810;DHT22;29440;48.208;11.162;2023-08-31T15:02:03;19.10;99.90
43810;DHT22;29440;48.208;11.162;2023-08-31T15:04:33;19.10;99.90
43810;DHT22;29440;48.208;11.162;2023-08-31T15:06:59;19.20;99.90
43810;DHT22;29440;48.208;11.162;2023-08-31T15:09:26;19.10;99.90
43810;DHT22;29440;48.208;11.162;2023-08-31T15:11:53;19.10;99.90
43810;DHT22;29440;48.208;11.162;2023-08-31T15:14:19;19.10;99.90
43810;DHT22;29440;48.208;11.162;2023-08-31T15:16:44;19.10;99.90
43810;DHT22;29440;48.208;11.162;2023-08-31T15:19:10;19.10;99.90
43810;DHT22;29440;48.208;11.162;2023-08-31T15:21:36;19.20;99.90
43810;DHT22;29440;48.208;11.162;2023-08-31T15:24:03;19.00;99.90
43810;DHT22;29440;48.208;11.162;2023-08-31T15:26:29;18.90;99.90
43810;DHT22;29440;48.208;11.162;2023-08-31T15:28:55;18.90;99.90
43810;DHT22;29440;48.208;11.162;2023-08-31T15:31:21;19.00;99.90